Terminal Aerodrome Forecast
Issued by NWS

Home | Current Version | Previous Version | Text Only | Print | Product List | Glossary On
Versions: 1 2 3 4 5 6 7 8 9 10 11 12 13 14 15 16 17 18 19 20 21 22 23 24 25 26
000
FTUS45 KSLC 211546 AAA
TAFBCE
TAF AMD
KBCE 211546Z 2116/2212 VRB03KT P6SM VCSH FEW010 BKN040
      TEMPO 2116/2118 4SM -SHRA BR SCT002 OVC030
     FM211800 18006KT P6SM VCTS SCT040CB BKN080
     FM220100 16005KT P6SM SCT080=

USA.gov is the U.S. government's official web portal to all federal, state and local government web resources and services.